This is the latest recevied weather packets stored in our database for station/object LRSB. If no packets are shown the sender has not sent any weather packets the latest 10 day(s).
| Time | Temp. | Humidity | Pressure | Rain* | Wind** | Luminosity | Snow |
|---|---|---|---|---|---|---|---|
| 1777664909 | 7.22° C | 57% | 1023 hPa | - | - | - | - |
| 1777664013 | 7.22° C | 57% | 1023 hPa | - | - | - | - |
| 1777663091 | 7.22° C | 57% | 1023 hPa | - | - | - | - |
| 1777662191 | 7.22° C | 57% | 1023 hPa | - | - | - | - |
| 1777661291 | 5° C | 70% | 1023 hPa | - | - | - | - |
| 1777660420 | 5° C | 70% | 1023 hPa | - | - | - | - |
| 1777659492 | 6.11° C | 61% | 1023 hPa | - | - | - | - |
| 1777658614 | 6.11° C | 61% | 1023 hPa | - | - | - | - |
| 1777657691 | 7.78° C | 53% | 1023 hPa | - | - | - | - |
| 1777656791 | 7.78° C | 53% | 1023 hPa | - | - | - | - |
| 1777655916 | 11.11° C | 38% | 1023 hPa | - | - | - | - |
| 1777654991 | 11.11° C | 38% | 1023 hPa | - | - | - | - |
| 1777654091 | 11.11° C | 35% | 1023 hPa | - | - | - | - |
| 1777653191 | 11.11° C | 35% | 1023 hPa | - | - | - | - |
| 1777652291 | 12.22° C | 35% | 1023 hPa | - | - | - | - |
| 1777651391 | 12.22° C | 35% | 1023 hPa | - | - | - | - |
| 1777650491 | 12.22° C | 33% | 1023 hPa | - | - | - | - |
| 1777649591 | 12.22° C | 35% | 1023 hPa | - | - | - | - |
| 1777648692 | 12.78° C | 28% | 1023 hPa | - | - | - | - |
| 1777647791 | 12.78° C | 28% | 1023 hPa | - | - | - | - |
| 1777646929 | 12.22° C | 33% | 1023 hPa | - | - | - | - |
| 1777646067 | 12.22° C | 33% | - | - | - | - | - |
| 1777645092 | 12.22° C | 35% | 1023 hPa | - | - | - | - |
| 1777644191 | 12.22° C | 35% | 1023 hPa | - | - | - | - |
| 1777643292 | 12.22° C | 35% | 1023 hPa | - | - | - | - |
* Rain since midnight (hover to see other rain measurements)
** Current wind speed in m/s (hover to see current wind gust speed)